Randers, Denmark
Current Conditions -  °F | °C
As of 7:20 AM on Wednesday 22 Oct 2014 (Local Time) from EKAH Reporting Station
Moderate Fog Moderate Fog  
Wind Chill: 46°   Ceiling: 200
Heat Index: 46°   Visibility: 0.28mi
Dew Point: 43°   Wind: 2mph
Humidity: 87%   Direction: 310°NW
Pressure: 29.53"   Gusts: NA
Location:  56.46°N, 10.05°E
Report Text: EKAH 220520Z AUTO 31002KT 0450NDV R10R/0650VP1500U R28L/0550V1300UFG BKN002/// BKN011/// 08/06 Q1000
Loading
Personal Weather Stations






























Interactive Weather Map
Tropical Storm Tracking
New forecast layout! Learn more

10-Day Weather Forecast

Advertisements
Track Severe Weather on mobile